createdAt,value
2019-06-01T00:02:15.833Z,67.23
2019-06-01T00:04:42.999Z,67.26
2019-06-01T00:07:09.375Z,67.25
2019-06-01T00:09:35.846Z,67.23
2019-06-01T00:12:01.775Z,67.30
2019-06-01T00:14:27.754Z,67.29
2019-06-01T00:16:53.723Z,67.28
2019-06-01T00:19:19.667Z,67.31
2019-06-01T00:21:45.700Z,67.30
2019-06-01T00:24:11.653Z,67.33
2019-06-01T00:26:37.587Z,67.30
2019-06-01T00:29:04.558Z,67.30
2019-06-01T00:31:30.609Z,67.36
2019-06-01T00:33:56.558Z,67.33
2019-06-01T00:36:23.025Z,67.32
2019-06-01T00:38:49.946Z,67.32
2019-06-01T00:41:16.361Z,67.35
2019-06-01T00:43:42.351Z,67.33
2019-06-01T00:46:08.178Z,67.28
2019-06-01T00:48:34.141Z,67.34
2019-06-01T00:51:00.149Z,67.33
2019-06-01T00:53:26.158Z,67.33
2019-06-01T00:55:53.567Z,67.34
2019-06-01T00:58:19.993Z,67.35
2019-06-01T01:00:47.364Z,67.35
2019-06-01T01:03:13.708Z,67.37
2019-06-01T01:05:39.782Z,67.43
2019-06-01T01:08:05.843Z,67.50
2019-06-01T01:10:31.891Z,67.50
2019-06-01T01:13:18.125Z,67.46
2019-06-01T01:15:45.128Z,67.48
2019-06-01T01:18:11.264Z,67.46
2019-06-01T01:20:37.844Z,67.51
2019-06-01T01:23:04.727Z,67.52
2019-06-01T01:25:30.785Z,67.50
2019-06-01T01:27:57.030Z,67.48
2019-06-01T01:30:23.107Z,67.54
2019-06-01T01:32:49.522Z,67.50
2019-06-01T01:35:15.582Z,67.46
2019-06-01T01:37:41.634Z,67.50
2019-06-01T01:40:07.889Z,67.49
2019-06-01T01:42:33.951Z,67.51
2019-06-01T01:44:59.909Z,67.48
2019-06-01T01:47:25.794Z,67.48
2019-06-01T01:49:52.100Z,67.51
2019-06-01T01:52:18.176Z,67.48
2019-06-01T01:54:44.227Z,67.52
2019-06-01T01:57:10.188Z,67.51
2019-06-01T01:59:36.441Z,67.60
2019-06-01T02:02:02.956Z,67.56
2019-06-01T02:04:29.165Z,67.62
2019-06-01T02:06:55.955Z,67.56
2019-06-01T02:09:22.198Z,67.56
2019-06-01T02:11:48.110Z,67.67
2019-06-01T02:14:14.187Z,67.74
2019-06-01T02:16:40.241Z,67.84
2019-06-01T02:19:06.184Z,68.65
2019-06-01T02:21:32.132Z,68.07
2019-06-01T02:23:59.052Z,68.21
2019-06-01T02:26:25.257Z,67.78
2019-06-01T02:28:53.245Z,68.19
2019-06-01T02:31:19.231Z,68.04
2019-06-01T02:33:45.151Z,67.99
2019-06-01T02:36:11.099Z,68.73
2019-06-01T02:38:37.148Z,68.55
2019-06-01T02:41:03.287Z,67.95
2019-06-01T02:43:30.885Z,68.08
2019-06-01T02:45:58.090Z,67.98
2019-06-01T02:48:24.113Z,67.89
2019-06-01T02:50:50.370Z,67.76
2019-06-01T02:53:16.184Z,67.69
2019-06-01T02:55:42.563Z,67.84
2019-06-01T02:58:08.623Z,67.89
2019-06-01T03:00:39.907Z,67.99
2019-06-01T03:03:06.917Z,68.26
2019-06-01T03:05:32.939Z,68.23
2019-06-01T03:07:59.333Z,68.45
2019-06-01T03:10:25.549Z,68.26
2019-06-01T03:12:54.573Z,68.49
2019-06-01T03:15:22.620Z,68.43
2019-06-01T03:17:48.828Z,68.31
2019-06-01T03:20:15.082Z,68.59
2019-06-01T03:22:41.235Z,68.36
2019-06-01T03:25:08.059Z,68.32
2019-06-01T03:27:34.996Z,68.21
2019-06-01T03:30:05.293Z,68.27
2019-06-01T03:32:36.580Z,68.23
2019-06-01T03:34:57.462Z,68.15
2019-06-01T03:37:23.511Z,68.36
2019-06-01T03:39:49.666Z,68.20
2019-06-01T03:42:15.944Z,68.12
2019-06-01T03:44:42.279Z,67.95
2019-06-01T03:47:09.631Z,67.95
2019-06-01T03:49:35.829Z,67.97
2019-06-01T03:52:02.701Z,68.24
2019-06-01T03:54:28.740Z,68.66
2019-06-01T03:56:54.686Z,68.52
2019-06-01T03:59:23.306Z,67.81
2019-06-01T04:01:49.237Z,67.56
2019-06-01T04:04:15.302Z,67.48
2019-06-01T04:06:41.565Z,67.47
2019-06-01T04:09:07.879Z,67.42
2019-06-01T04:11:33.984Z,67.56
2019-06-01T04:14:00.036Z,67.25
2019-06-01T04:16:26.195Z,67.40
2019-06-01T04:18:52.143Z,67.29
2019-06-01T04:21:18.192Z,67.30
2019-06-01T04:23:44.240Z,67.28
2019-06-01T04:26:10.425Z,67.26
2019-06-01T04:28:36.466Z,67.24
2019-06-01T04:31:02.522Z,67.25
2019-06-01T04:33:28.584Z,67.28
2019-06-01T04:35:55.052Z,67.27
2019-06-01T04:38:23.787Z,67.35
2019-06-01T04:40:49.828Z,67.32
2019-06-01T04:43:15.798Z,67.30
2019-06-01T04:45:41.697Z,67.27
2019-06-01T04:48:08.412Z,67.32
2019-06-01T04:50:34.792Z,67.40
2019-06-01T04:53:00.945Z,67.36
2019-06-01T04:55:27.003Z,67.38
2019-06-01T04:57:53.373Z,67.36
2019-06-01T05:00:27.305Z,67.43
2019-06-01T05:02:47.113Z,67.40
2019-06-01T05:05:13.347Z,67.36
2019-06-01T05:07:39.519Z,67.24
2019-06-01T05:10:07.533Z,67.17
2019-06-01T05:12:33.601Z,67.20
2019-06-01T05:14:59.627Z,67.17
2019-06-01T05:17:25.802Z,67.12
2019-06-01T05:19:51.966Z,67.14
2019-06-01T05:22:18.014Z,67.17
2019-06-01T05:24:44.076Z,67.16
2019-06-01T05:27:11.109Z,67.12
2019-06-01T05:29:37.210Z,67.28
2019-06-01T05:32:03.675Z,67.27
2019-06-01T05:34:29.747Z,67.35
2019-06-01T05:36:55.813Z,67.45
2019-06-01T05:39:21.796Z,67.48
2019-06-01T05:41:47.702Z,67.93
2019-06-01T05:44:14.626Z,67.61
2019-06-01T05:46:41.069Z,67.49
2019-06-01T05:49:07.424Z,67.61
2019-06-01T05:51:33.332Z,67.61
2019-06-01T05:53:59.353Z,68.60
2019-06-01T05:56:25.323Z,67.70
2019-06-01T05:58:51.788Z,67.49
2019-06-01T06:01:19.567Z,67.46
2019-06-01T06:03:45.456Z,67.38
2019-06-01T06:06:11.686Z,67.42
2019-06-01T06:08:37.938Z,67.40
2019-06-01T06:11:03.997Z,67.34
2019-06-01T06:13:30.457Z,67.40
2019-06-01T06:15:56.511Z,67.41
2019-06-01T06:18:22.564Z,67.35
2019-06-01T06:20:48.631Z,67.40
2019-06-01T06:23:14.659Z,67.46
2019-06-01T06:25:41.485Z,67.43
2019-06-01T06:28:07.600Z,67.58
2019-06-01T06:30:33.673Z,67.52
2019-06-01T06:33:00.037Z,67.64
2019-06-01T06:35:26.107Z,67.69
2019-06-01T06:37:52.071Z,67.67
2019-06-01T06:40:18.077Z,67.74
2019-06-01T06:42:44.092Z,68.01
2019-06-01T06:45:10.163Z,67.95
2019-06-01T06:47:36.220Z,68.03
2019-06-01T06:50:02.725Z,68.18
2019-06-01T06:52:28.588Z,68.16
2019-06-01T06:54:54.826Z,68.38
2019-06-01T06:57:24.127Z,67.86
2019-06-01T06:59:50.228Z,68.01
2019-06-01T07:02:16.729Z,67.87
2019-06-01T07:04:42.835Z,68.01
2019-06-01T07:07:09.132Z,67.98
2019-06-01T07:09:35.677Z,67.61
2019-06-01T07:12:01.535Z,67.83
2019-06-01T07:14:27.611Z,67.73
2019-06-01T07:16:53.844Z,67.80
2019-06-01T07:19:19.891Z,67.78
2019-06-01T07:21:45.963Z,67.81
2019-06-01T07:24:11.933Z,67.82
2019-06-01T07:26:37.787Z,67.89
2019-06-01T07:29:04.057Z,67.66
2019-06-01T07:31:30.409Z,67.68
2019-06-01T07:33:56.464Z,67.76
2019-06-01T07:36:22.640Z,67.87
2019-06-01T07:38:48.591Z,68.07
2019-06-01T07:41:14.454Z,67.84
2019-06-01T07:43:40.431Z,67.97
2019-06-01T07:46:06.388Z,67.92
2019-06-01T07:48:33.427Z,68.25
2019-06-01T07:50:59.424Z,67.97
2019-06-01T07:53:25.603Z,68.10
2019-06-01T07:55:52.255Z,68.24
2019-06-01T07:58:18.227Z,68.32
2019-06-01T08:00:44.153Z,68.34
2019-06-01T08:03:10.212Z,68.12
2019-06-01T08:05:36.276Z,68.46
2019-06-01T08:08:02.352Z,68.41
2019-06-01T08:10:29.538Z,68.44
2019-06-01T08:12:55.607Z,68.46
2019-06-01T08:15:25.542Z,68.77
2019-06-01T08:17:54.694Z,68.32
2019-06-01T08:20:21.811Z,68.51
2019-06-01T08:22:48.036Z,68.64
2019-06-01T08:25:14.092Z,68.84
2019-06-01T08:27:40.155Z,68.23
2019-06-01T08:30:06.434Z,67.66
2019-06-01T08:32:32.874Z,69.25
2019-06-01T08:35:08.614Z,68.88
2019-06-01T08:37:27.230Z,68.05
2019-06-01T08:39:53.120Z,67.66
2019-06-01T08:42:19.099Z,67.28
2019-06-01T08:44:45.149Z,67.04
2019-06-01T08:47:11.325Z,67.56
2019-06-01T08:49:37.271Z,66.94
2019-06-01T08:52:03.338Z,67.02
2019-06-01T08:54:30.296Z,67.52
2019-06-01T08:56:56.397Z,67.25
2019-06-01T08:59:22.447Z,67.24
2019-06-01T09:01:48.321Z,67.02
2019-06-01T09:04:14.343Z,66.89
2019-06-01T09:06:40.413Z,67.74
2019-06-01T09:09:06.883Z,67.41
2019-06-01T09:11:33.251Z,67.56
2019-06-01T09:13:59.413Z,66.96
2019-06-01T09:16:25.606Z,66.88
2019-06-01T09:18:54.339Z,67.80
2019-06-01T09:21:20.354Z,67.43
2019-06-01T09:23:46.309Z,67.80
2019-06-01T09:26:12.364Z,67.23
2019-06-01T09:28:38.727Z,66.74
2019-06-01T09:31:04.767Z,67.02
2019-06-01T09:33:32.117Z,66.99
2019-06-01T09:35:58.183Z,67.69
2019-06-01T09:38:24.080Z,67.38
2019-06-01T09:40:50.130Z,66.77
2019-06-01T09:43:16.169Z,67.46
2019-06-01T09:45:42.774Z,67.23
2019-06-01T09:48:08.794Z,67.17
2019-06-01T09:50:35.512Z,67.51
2019-06-01T09:53:01.542Z,67.35
2019-06-01T09:55:28.890Z,66.93
2019-06-01T09:57:55.368Z,67.16
2019-06-01T10:00:24.812Z,67.10
2019-06-01T10:02:52.052Z,67.92
2019-06-01T10:05:18.454Z,67.86
2019-06-01T10:07:44.515Z,68.39
2019-06-01T10:10:10.468Z,68.15
2019-06-01T10:12:36.429Z,67.84
2019-06-01T10:15:03.415Z,68.79
2019-06-01T10:17:30.530Z,68.43
2019-06-01T10:19:56.739Z,67.92
2019-06-01T10:22:22.787Z,67.73
2019-06-01T10:24:48.832Z,67.84
2019-06-01T10:27:15.091Z,67.97
2019-06-01T10:29:41.038Z,67.41
2019-06-01T10:32:07.020Z,67.42
2019-06-01T10:34:33.545Z,67.54
2019-06-01T10:36:59.632Z,68.02
2019-06-01T10:39:25.574Z,68.19
2019-06-01T10:41:54.539Z,68.40
2019-06-01T10:44:21.099Z,67.49
2019-06-01T10:46:47.050Z,67.71
2019-06-01T10:49:13.100Z,68.50
2019-06-01T10:51:40.243Z,68.20
2019-06-01T10:54:06.434Z,67.80
2019-06-01T10:56:32.482Z,68.12
2019-06-01T10:59:00.540Z,67.83
2019-06-01T11:01:26.446Z,67.73
2019-06-01T11:03:52.400Z,68.00
2019-06-01T11:06:18.444Z,67.96
2019-06-01T11:08:44.814Z,67.68
2019-06-01T11:11:10.711Z,67.62
2019-06-01T11:13:37.041Z,67.23
2019-06-01T11:16:03.069Z,68.23
2019-06-01T11:18:29.015Z,67.58
2019-06-01T11:20:54.886Z,67.42
2019-06-01T11:23:23.063Z,67.24
2019-06-01T11:25:49.413Z,67.40
2019-06-01T11:28:15.466Z,67.87
2019-06-01T11:30:41.865Z,67.63
2019-06-01T11:33:07.972Z,67.38
2019-06-01T11:35:34.942Z,67.70
2019-06-01T11:38:00.925Z,67.51
2019-06-01T11:40:27.074Z,67.73
2019-06-01T11:42:53.016Z,67.48
2019-06-01T11:45:19.375Z,67.80
2019-06-01T11:47:45.283Z,67.67
2019-06-01T11:50:11.152Z,67.93
2019-06-01T11:52:37.180Z,67.67
2019-06-01T11:55:06.885Z,67.58
2019-06-01T11:57:32.917Z,67.91
2019-06-01T11:59:58.967Z,68.41
2019-06-01T12:02:25.324Z,67.61
2019-06-01T12:04:54.473Z,67.79
2019-06-01T12:07:20.517Z,67.69
2019-06-01T12:09:46.463Z,68.12
2019-06-01T12:12:12.514Z,67.61
2019-06-01T12:14:38.565Z,68.00
2019-06-01T12:17:04.921Z,68.08
2019-06-01T12:19:30.992Z,68.11
2019-06-01T12:21:57.041Z,68.62
2019-06-01T12:24:25.628Z,68.39
2019-06-01T12:26:51.011Z,67.71
2019-06-01T12:29:17.027Z,68.62
2019-06-01T12:31:43.800Z,68.28
2019-06-01T12:34:09.854Z,67.92
2019-06-01T12:36:35.917Z,68.00
2019-06-01T12:39:02.374Z,67.76
2019-06-01T12:41:28.424Z,68.32
2019-06-01T12:44:08.506Z,68.28
2019-06-01T12:46:34.763Z,68.53
2019-06-01T12:49:00.821Z,68.19
2019-06-01T12:51:26.868Z,68.28
2019-06-01T12:53:52.913Z,68.41
2019-06-01T12:56:19.273Z,67.83
2019-06-01T12:58:46.007Z,68.69
2019-06-01T13:01:12.100Z,68.24
2019-06-01T13:03:38.159Z,68.36
2019-06-01T13:06:04.122Z,68.28
2019-06-01T13:08:30.156Z,68.32
2019-06-01T13:10:56.215Z,68.69
2019-06-01T13:13:22.273Z,68.51
2019-06-01T13:15:49.343Z,68.59
2019-06-01T13:18:15.498Z,68.36
2019-06-01T13:20:41.480Z,68.49
2019-06-01T13:23:07.501Z,68.37
2019-06-01T13:25:33.564Z,68.08
2019-06-01T13:27:59.538Z,68.10
2019-06-01T13:30:25.496Z,68.39
2019-06-01T13:32:53.338Z,68.47
2019-06-01T13:35:19.372Z,68.49
2019-06-01T13:37:45.209Z,68.73
2019-06-01T13:40:11.084Z,68.59
2019-06-01T13:42:37.043Z,68.67
2019-06-01T13:45:06.515Z,68.57
2019-06-01T13:47:32.568Z,68.74
2019-06-01T13:49:58.524Z,68.54
2019-06-01T13:52:24.481Z,68.77
2019-06-01T13:54:50.650Z,68.33
2019-06-01T13:57:16.793Z,68.02
2019-06-01T13:59:44.440Z,68.12
2019-06-01T14:02:10.558Z,68.00
2019-06-01T14:04:36.992Z,67.95
2019-06-01T14:07:03.066Z,68.09
2019-06-01T14:09:29.089Z,67.97
2019-06-01T14:11:55.546Z,67.75
2019-06-01T14:14:24.782Z,68.01
2019-06-01T14:16:51.707Z,67.56
2019-06-01T14:19:18.207Z,67.75
2019-06-01T14:21:45.610Z,67.78
2019-06-01T14:24:12.047Z,67.76
2019-06-01T14:26:37.994Z,68.03
2019-06-01T14:29:04.042Z,68.02
2019-06-01T14:31:30.091Z,67.97
2019-06-01T14:33:56.682Z,67.86
2019-06-01T14:36:22.704Z,67.82
2019-06-01T14:38:50.578Z,67.82
2019-06-01T14:41:16.452Z,67.88
2019-06-01T14:43:42.374Z,68.10
2019-06-01T14:46:08.259Z,67.61
2019-06-01T14:48:34.208Z,67.73
2019-06-01T14:51:00.154Z,67.95
2019-06-01T14:53:26.217Z,67.68
2019-06-01T14:55:52.161Z,67.66
2019-06-01T14:58:18.207Z,67.64
2019-06-01T15:00:44.254Z,67.18
2019-06-01T15:03:10.305Z,67.58
2019-06-01T15:05:36.354Z,67.71
2019-06-01T15:08:02.404Z,67.63
2019-06-01T15:10:28.458Z,67.30
2019-06-01T15:13:00.045Z,67.69
2019-06-01T15:15:22.207Z,67.77
2019-06-01T15:17:49.212Z,67.89
2019-06-01T15:20:15.142Z,67.95
2019-06-01T15:22:41.203Z,67.56
2019-06-01T15:25:07.303Z,67.58
2019-06-01T15:27:33.358Z,67.76
2019-06-01T15:29:59.418Z,67.71
2019-06-01T15:32:26.792Z,67.40
2019-06-01T15:34:52.902Z,67.44
2019-06-01T15:37:18.924Z,67.48
2019-06-01T15:39:44.975Z,67.31
2019-06-01T15:42:11.033Z,67.30
2019-06-01T15:44:37.103Z,67.36
2019-06-01T15:47:03.089Z,67.37
2019-06-01T15:49:29.130Z,67.39
2019-06-01T15:51:55.843Z,67.09
2019-06-01T15:54:22.026Z,67.34
2019-06-01T15:56:48.039Z,67.38
2019-06-01T15:59:14.091Z,67.36
2019-06-01T16:01:40.156Z,67.46
2019-06-01T16:04:06.244Z,67.25
2019-06-01T16:06:32.310Z,67.10
2019-06-01T16:08:59.318Z,67.43
2019-06-01T16:11:25.432Z,67.38
2019-06-01T16:13:53.637Z,67.25
2019-06-01T16:16:19.686Z,67.48
2019-06-01T16:18:45.769Z,67.20
2019-06-01T16:21:11.711Z,67.32
2019-06-01T16:23:49.471Z,67.27
2019-06-01T16:26:15.428Z,67.23
2019-06-01T16:28:33.045Z,67.24
2019-06-01T16:30:58.986Z,67.23
2019-06-01T16:33:25.049Z,67.27
2019-06-01T16:35:54.829Z,67.17
2019-06-01T16:38:22.675Z,67.23
2019-06-01T16:40:48.661Z,67.23
2019-06-01T16:43:14.691Z,67.15
2019-06-01T16:45:40.757Z,67.25
2019-06-01T16:48:06.808Z,67.33
2019-06-01T16:50:33.166Z,67.38
2019-06-01T16:53:00.186Z,67.22
2019-06-01T16:55:26.202Z,67.30
2019-06-01T16:57:52.145Z,67.32
2019-06-01T17:00:18.205Z,67.20
2019-06-01T17:02:44.269Z,67.25
2019-06-01T17:05:10.946Z,67.18
2019-06-01T17:07:37.010Z,67.15
2019-06-01T17:10:21.739Z,67.29
2019-06-01T17:12:32.497Z,67.30
2019-06-01T17:14:58.863Z,67.29
2019-06-01T17:17:24.908Z,67.23
2019-06-01T17:19:51.158Z,67.10
2019-06-01T17:22:17.202Z,67.25
2019-06-01T17:24:43.262Z,67.73
2019-06-01T17:27:09.316Z,67.40
2019-06-01T17:29:35.383Z,67.51
2019-06-01T17:32:16.706Z,67.54
2019-06-01T17:34:29.142Z,67.46
2019-06-01T17:36:55.132Z,67.41
2019-06-01T17:39:23.627Z,67.38
2019-06-01T17:41:49.781Z,67.50
2019-06-01T17:44:15.831Z,67.39
2019-06-01T17:46:52.942Z,67.46
2019-06-01T17:49:09.896Z,67.47
2019-06-01T17:51:35.955Z,67.40
2019-06-01T17:54:02.814Z,67.50
2019-06-01T17:56:29.821Z,67.43
2019-06-01T17:58:55.885Z,67.41
2019-06-01T18:01:21.935Z,67.69
2019-06-01T18:03:47.988Z,67.63
2019-06-01T18:06:14.346Z,67.64
2019-06-01T18:08:40.717Z,67.84
2019-06-01T18:11:08.015Z,67.66
2019-06-01T18:13:34.064Z,67.82
2019-06-01T18:16:00.018Z,67.83
2019-06-01T18:18:26.068Z,68.13
2019-06-01T18:20:52.130Z,67.67
2019-06-01T18:23:18.193Z,67.76
2019-06-01T18:25:44.245Z,67.78
2019-06-01T18:28:16.099Z,67.59
2019-06-01T18:30:38.003Z,67.45
2019-06-01T18:33:04.871Z,67.37
2019-06-01T18:35:31.083Z,67.34
2019-06-01T18:37:57.119Z,67.38
2019-06-01T18:40:23.283Z,67.38
2019-06-01T18:42:50.554Z,67.36
2019-06-01T18:45:16.737Z,67.38
2019-06-01T18:47:42.784Z,67.34
2019-06-01T18:50:14.613Z,67.33
2019-06-01T18:52:38.691Z,67.43
2019-06-01T18:55:06.428Z,67.46
2019-06-01T18:57:33.049Z,67.49
2019-06-01T18:59:59.106Z,67.51
2019-06-01T19:02:25.168Z,67.28
2019-06-01T19:04:51.232Z,67.02
2019-06-01T19:07:17.280Z,66.80
2019-06-01T19:09:43.339Z,66.58
2019-06-01T19:12:09.397Z,66.33
2019-06-01T19:14:35.454Z,66.13
2019-06-01T19:17:01.663Z,66.12
2019-06-01T19:19:27.865Z,65.99
2019-06-01T19:21:54.235Z,66.00
2019-06-01T19:24:20.604Z,66.11
2019-06-01T19:26:46.746Z,66.13
2019-06-01T19:29:12.912Z,66.17
2019-06-01T19:31:38.948Z,66.25
2019-06-01T19:34:05.115Z,66.22
2019-06-01T19:36:31.009Z,66.25
2019-06-01T19:38:57.026Z,66.28
2019-06-01T19:41:23.090Z,66.37
2019-06-01T19:43:49.096Z,66.38
2019-06-01T19:46:15.895Z,66.43
2019-06-01T19:48:42.110Z,66.45
2019-06-01T19:51:08.677Z,66.35
2019-06-01T19:53:37.824Z,66.37
2019-06-01T19:56:04.194Z,66.52
2019-06-01T19:58:30.154Z,66.48
2019-06-01T20:00:56.292Z,66.55
2019-06-01T20:03:23.855Z,66.56
2019-06-01T20:05:50.045Z,66.60
2019-06-01T20:08:16.275Z,66.58
2019-06-01T20:10:42.367Z,66.66
2019-06-01T20:13:08.338Z,66.61
2019-06-01T20:15:36.561Z,66.69
2019-06-01T20:18:02.505Z,66.70
2019-06-01T20:20:28.574Z,66.72
2019-06-01T20:22:54.624Z,66.75
2019-06-01T20:25:21.790Z,66.69
2019-06-01T20:27:47.789Z,66.72
2019-06-01T20:30:13.956Z,66.76
2019-06-01T20:32:40.046Z,66.74
2019-06-01T20:35:06.095Z,66.69
2019-06-01T20:37:32.447Z,66.74
2019-06-01T20:39:58.433Z,66.85
2019-06-01T20:42:31.847Z,66.83
2019-06-01T20:44:52.215Z,66.91
2019-06-01T20:47:18.881Z,66.91
2019-06-01T20:49:45.472Z,66.94
2019-06-01T20:52:12.675Z,66.97
2019-06-01T20:54:38.832Z,67.08
2019-06-01T20:57:04.990Z,67.13
2019-06-01T20:59:31.035Z,67.02
2019-06-01T21:01:56.995Z,67.07
2019-06-01T21:04:24.101Z,67.10
2019-06-01T21:06:50.453Z,67.07
2019-06-01T21:09:17.761Z,67.12
2019-06-01T21:11:43.781Z,67.13
2019-06-01T21:14:09.730Z,67.15
2019-06-01T21:16:35.677Z,67.20
2019-06-01T21:19:01.617Z,67.30
2019-06-01T21:21:27.987Z,67.17
2019-06-01T21:23:54.046Z,67.17
2019-06-01T21:26:21.053Z,67.27
2019-06-01T21:28:47.313Z,67.20
2019-06-01T21:31:13.352Z,67.28
2019-06-01T21:33:39.709Z,67.10
2019-06-01T21:36:05.768Z,67.25
2019-06-01T21:38:31.809Z,67.34
2019-06-01T21:40:57.866Z,67.33
2019-06-01T21:43:34.179Z,66.59
2019-06-01T21:45:52.021Z,66.74
2019-06-01T21:48:18.084Z,66.82
2019-06-01T21:50:44.147Z,66.98
2019-06-01T21:53:10.493Z,67.03
2019-06-01T21:55:36.549Z,67.22
2019-06-01T21:58:02.596Z,67.07
2019-06-01T22:00:33.661Z,67.18
2019-06-01T22:02:59.634Z,67.17
2019-06-01T22:05:25.658Z,67.17
2019-06-01T22:07:52.023Z,67.10
2019-06-01T22:10:19.028Z,67.32
2019-06-01T22:12:45.451Z,67.09
2019-06-01T22:15:11.434Z,67.26
2019-06-01T22:17:37.467Z,67.15
2019-06-01T22:20:06.517Z,67.29
2019-06-01T22:22:32.558Z,67.13
2019-06-01T22:24:58.655Z,67.37
2019-06-01T22:27:24.679Z,67.29
2019-06-01T22:29:50.625Z,67.30
2019-06-01T22:32:16.495Z,66.97
2019-06-01T22:34:42.525Z,66.71
2019-06-01T22:37:08.587Z,66.94
2019-06-01T22:39:37.484Z,67.02
2019-06-01T22:42:03.452Z,67.13
2019-06-01T22:44:29.522Z,67.30
2019-06-01T22:46:55.582Z,67.30
2019-06-01T22:49:22.588Z,67.14
2019-06-01T22:51:48.700Z,67.23
2019-06-01T22:54:14.759Z,67.30
2019-06-01T22:56:40.816Z,67.28
2019-06-01T22:59:07.172Z,67.28
2019-06-01T23:01:33.548Z,67.25
2019-06-01T23:03:59.583Z,67.45
2019-06-01T23:06:25.649Z,67.41
2019-06-01T23:08:51.817Z,67.47
2019-06-01T23:11:17.881Z,67.56
2019-06-01T23:13:52.942Z,67.57
2019-06-01T23:16:11.645Z,67.56
2019-06-01T23:18:38.031Z,67.55
2019-06-01T23:21:06.553Z,67.52
2019-06-01T23:23:32.507Z,67.62
2019-06-01T23:25:58.563Z,67.66
2019-06-01T23:28:24.541Z,67.69
2019-06-01T23:30:50.566Z,67.77
2019-06-01T23:33:16.823Z,67.64
2019-06-01T23:35:42.769Z,67.66
2019-06-01T23:38:08.826Z,67.65
2019-06-01T23:40:35.181Z,67.64
2019-06-01T23:43:01.226Z,67.58
2019-06-01T23:45:27.283Z,67.58
2019-06-01T23:47:53.641Z,67.61
2019-06-01T23:50:19.594Z,67.70
2019-06-01T23:52:45.547Z,67.66
2019-06-01T23:55:11.614Z,67.61
2019-06-01T23:57:38.086Z,67.52
